Time;durP1;ratioP1;P1;durP2;ratioP2;P2;SDS_P1;SDS_P2;PMS_P1;PMS_P2;Temp;Humidity;BMP_temperature;BMP_pressure;BME280_temperature;BME280_humidity;BME280_pressure;Samples;Min_cycle;Max_cycle;Signal;HPM_P1;HPM_P2
2023/08/14 00:01:27;;;;;;;5.75;3.13;;;;;;;16.15;100.00;101521.53;10497366;28;20032;-73
2023/08/14 00:06:27;;;;;;;2.45;2.28;;;;;;;16.14;100.00;101514.38;10497357;28;20033;-69
2023/08/14 00:11:27;;;;;;;8.65;3.05;;;;;;;16.03;100.00;101507.72;10495300;28;20063;-70
2023/08/14 00:16:28;;;;;;;4.78;3.35;;;;;;;15.93;100.00;101514.72;10496958;28;20068;-69
2023/08/14 00:21:28;;;;;;;9.18;3.35;;;;;;;15.92;100.00;101516.63;10496030;28;20032;-69
2023/08/14 00:26:28;;;;;;;14.07;4.00;;;;;;;15.90;100.00;101498.78;10496208;28;20130;-69
2023/08/14 00:31:29;;;;;;;10.00;3.33;;;;;;;15.89;100.00;101506.13;10496692;28;20123;-69
2023/08/14 00:36:29;;;;;;;4.32;3.20;;;;;;;15.88;100.00;101496.25;10495787;28;20081;-68
2023/08/14 00:41:30;;;;;;;6.32;2.95;;;;;;;15.89;100.00;101505.28;10494464;28;20095;-69
2023/08/14 00:46:31;;;;;;;4.38;2.05;;;;;;;15.90;100.00;101491.41;10495504;28;20349;-69
2023/08/14 00:51:31;;;;;;;5.80;3.03;;;;;;;15.86;100.00;101486.59;10493918;28;20115;-69
2023/08/14 00:56:31;;;;;;;3.95;2.10;;;;;;;15.78;100.00;101479.50;10495528;28;20419;-69
2023/08/14 01:01:32;;;;;;;9.48;2.78;;;;;;;15.70;100.00;101488.78;10501798;28;20036;-69
2023/08/14 01:06:32;;;;;;;6.88;2.13;;;;;;;15.73;100.00;101492.97;10517781;28;20054;-69
2023/08/14 01:11:43;;;;;;;8.82;1.85;;;;;;;15.67;100.00;101483.78;10502485;28;20029;-69
2023/08/14 01:16:44;;;;;;;3.22;2.13;;;;;;;15.58;100.00;101477.69;10501582;28;20360;-69
2023/08/14 01:22:00;;;;;;;6.95;3.10;;;;;;;15.47;100.00;101469.31;10518226;28;20112;-69
2023/08/14 01:27:00;;;;;;;14.88;2.60;;;;;;;15.41;100.00;101462.84;10486002;28;20067;-69
2023/08/14 01:32:01;;;;;;;2.78;2.47;;;;;;;15.39;100.00;101456.75;10502487;28;20090;-69
2023/08/14 01:37:12;;;;;;;4.03;2.15;;;;;;;15.37;100.00;101458.84;10503385;28;20032;-69
2023/08/14 01:42:18;;;;;;;10.98;3.38;;;;;;;15.33;100.00;101446.72;10500295;28;20341;-69
2023/08/14 01:47:18;;;;;;;2.83;2.55;;;;;;;15.33;100.00;101452.16;10499686;28;20387;-68
2023/08/14 01:52:19;;;;;;;3.92;2.13;;;;;;;15.28;100.00;101430.13;10500878;28;20035;-68
2023/08/14 01:57:19;;;;;;;5.78;3.38;;;;;;;15.19;100.00;101432.28;10501262;28;20080;-69
2023/08/14 02:02:20;;;;;;;2.58;2.03;;;;;;;15.14;100.00;101432.06;10499280;28;20036;-69
2023/08/14 02:07:21;;;;;;;7.22;3.03;;;;;;;15.05;100.00;101431.47;10499343;28;20037;-69
2023/08/14 02:12:22;;;;;;;4.20;2.47;;;;;;;15.00;100.00;101425.84;10515462;28;20032;-68
2023/08/14 02:17:22;;;;;;;3.42;1.73;;;;;;;15.07;100.00;101418.47;10500601;28;20059;-69
2023/08/14 02:22:23;;;;;;;4.03;2.95;;;;;;;15.05;100.00;101422.44;10500122;28;20033;-69
2023/08/14 02:27:23;;;;;;;3.03;2.30;;;;;;;15.05;100.00;101412.38;10498979;28;20130;-68
2023/08/14 02:32:23;;;;;;;1.85;1.73;;;;;;;15.02;100.00;101409.25;10499723;28;20032;-69
2023/08/14 02:37:24;;;;;;;2.40;2.13;;;;;;;14.92;100.00;101417.88;10500059;28;20473;-69
2023/08/14 02:42:24;;;;;;;3.20;2.17;;;;;;;14.95;100.00;101409.25;10499374;28;20063;-69
2023/08/14 02:47:25;;;;;;;2.35;1.83;;;;;;;15.00;100.00;101412.19;10498820;28;20059;-69
2023/08/14 02:52:25;;;;;;;9.10;3.95;;;;;;;14.98;100.00;101414.28;10498581;28;20032;-69
2023/08/14 02:57:25;;;;;;;4.15;3.13;;;;;;;14.91;100.00;101418.09;10479321;28;20059;-69
2023/08/14 03:02:26;;;;;;;8.40;3.20;;;;;;;14.86;100.00;101418.72;10498305;28;20052;-69
2023/08/14 03:07:26;;;;;;;3.38;2.78;;;;;;;14.80;100.00;101422.28;10498079;28;20036;-69
2023/08/14 03:12:27;;;;;;;4.68;2.42;;;;;;;14.78;100.00;101427.97;10497316;28;20047;-69
2023/08/14 03:17:27;;;;;;;3.85;2.50;;;;;;;14.84;100.00;101429.84;10496887;28;20101;-69
2023/08/14 03:22:27;;;;;;;3.63;2.95;;;;;;;14.90;100.00;101422.72;10497326;28;20032;-69
2023/08/14 03:27:28;;;;;;;3.70;2.78;;;;;;;14.94;100.00;101410.31;10497695;28;20119;-69
2023/08/14 03:32:28;;;;;;;4.72;2.88;;;;;;;14.96;100.00;101419.09;10498251;28;20029;-69
2023/08/14 03:37:28;;;;;;;11.85;3.28;;;;;;;14.96;100.00;101418.28;10513778;28;20392;-68
2023/08/14 03:42:29;;;;;;;7.90;3.25;;;;;;;14.97;100.00;101418.06;10497363;28;20044;-69
2023/08/14 03:47:29;;;;;;;3.38;3.08;;;;;;;15.02;100.00;101422.88;10497428;28;20051;-69
2023/08/14 03:52:30;;;;;;;4.25;3.25;;;;;;;15.05;100.00;101422.44;10479578;28;20094;-69
2023/08/14 03:57:30;;;;;;;9.65;3.05;;;;;;;15.06;100.00;101418.66;10497719;28;20060;-69
2023/08/14 04:02:30;;;;;;;2.40;2.05;;;;;;;15.09;100.00;101420.97;10495664;28;20392;-69
2023/08/14 04:07:31;;;;;;;4.78;2.30;;;;;;;15.10;100.00;101411.75;10479775;28;20079;-69
2023/08/14 04:12:31;;;;;;;9.55;2.38;;;;;;;15.14;100.00;101414.88;10496254;28;20037;-69
2023/08/14 04:17:32;;;;;;;4.55;2.97;;;;;;;15.17;100.00;101419.91;10461552;28;20033;-69
2023/08/14 04:22:33;;;;;;;3.17;2.35;;;;;;;15.21;100.00;101411.06;10494640;28;20425;-69
2023/08/14 04:27:37;;;;;;;6.72;3.20;;;;;;;15.25;100.00;101406.88;10495632;28;20125;-69
2023/08/14 04:32:37;;;;;;;9.25;2.97;;;;;;;15.31;100.00;101405.13;10498632;28;20029;-69
2023/08/14 04:37:38;;;;;;;2.45;1.85;;;;;;;15.39;100.00;101395.88;10504033;28;20059;-70
2023/08/14 04:42:38;;;;;;;3.53;2.33;;;;;;;15.46;100.00;101392.06;10503523;28;20112;-70
2023/08/14 04:47:39;;;;;;;4.93;3.10;;;;;;;15.51;100.00;101381.34;10503586;28;20071;-70
2023/08/14 04:52:39;;;;;;;1.85;1.75;;;;;;;15.56;100.00;101389.69;10503356;28;20036;-70
2023/08/14 04:57:39;;;;;;;3.50;2.40;;;;;;;15.59;100.00;101388.41;10501461;28;20543;-69
2023/08/14 05:02:40;;;;;;;3.15;2.35;;;;;;;15.64;100.00;101382.31;10502132;28;20086;-70
2023/08/14 05:07:40;;;;;;;2.90;2.63;;;;;;;15.70;100.00;101386.94;10502800;28;20111;-69
2023/08/14 05:12:41;;;;;;;4.07;3.42;;;;;;;15.77;100.00;101383.09;10502986;28;20105;-69
2023/08/14 05:17:41;;;;;;;6.90;3.47;;;;;;;15.81;100.00;101392.50;10502271;28;20036;-69
2023/08/14 05:22:43;;;;;;;2.95;2.50;;;;;;;15.82;100.00;101396.06;10500715;28;20024;-69
2023/08/14 05:27:44;;;;;;;5.97;2.58;;;;;;;15.84;100.00;101399.44;10500410;28;20090;-69
2023/08/14 05:32:46;;;;;;;7.30;2.30;;;;;;;15.89;100.00;101396.91;10500612;28;20041;-69
2023/08/14 05:37:46;;;;;;;2.75;2.33;;;;;;;16.02;100.00;101393.22;10502725;28;20491;-69
2023/08/14 05:43:06;;;;;;;4.18;2.40;;;;;;;16.21;100.00;101394.13;10499924;28;20032;-69
2023/08/14 05:48:06;;;;;;;3.03;2.83;;;;;;;16.37;100.00;101382.63;10499821;28;20024;-69
2023/08/14 05:53:07;;;;;;;8.48;3.65;;;;;;;16.50;100.00;101387.97;10500398;28;20044;-69
2023/08/14 05:58:08;;;;;;;17.15;3.55;;;;;;;16.65;100.00;101392.22;10502274;28;20048;-69
2023/08/14 06:03:08;;;;;;;4.05;3.40;;;;;;;16.80;100.00;101395.47;10499360;28;20131;-70
2023/08/14 06:08:09;;;;;;;3.75;3.35;;;;;;;16.93;100.00;101389.88;10499680;28;20032;-69
2023/08/14 06:13:09;;;;;;;3.50;3.22;;;;;;;17.12;100.00;101385.22;10500826;28;20045;-69
2023/08/14 06:18:09;;;;;;;6.30;4.13;;;;;;;17.35;100.00;101395.44;10499832;28;20083;-69
2023/08/14 06:23:10;;;;;;;4.22;3.90;;;;;;;17.53;100.00;101391.03;10497634;28;20503;-69
2023/08/14 06:28:10;;;;;;;7.90;4.20;;;;;;;17.84;100.00;101401.78;10497765;28;20056;-69
2023/08/14 06:33:11;;;;;;;7.28;4.28;;;;;;;18.06;100.00;101402.06;10498552;28;20024;-69
2023/08/14 06:38:11;;;;;;;6.82;4.05;;;;;;;18.16;100.00;101398.75;10498181;28;20043;-69
2023/08/14 06:43:11;;;;;;;3.80;3.45;;;;;;;18.31;100.00;101412.00;10497774;28;20044;-69
2023/08/14 06:48:13;;;;;;;5.05;3.50;;;;;;;18.80;100.00;101420.88;10481832;28;20110;-69
2023/08/14 06:53:13;;;;;;;4.05;3.65;;;;;;;19.87;100.00;101419.50;10498785;28;20050;-69
2023/08/14 06:58:13;;;;;;;3.70;3.50;;;;;;;21.44;100.00;101408.44;10497392;28;20064;-69
2023/08/14 07:03:14;;;;;;;6.03;3.13;;;;;;;23.26;95.28;101401.94;10496794;28;20059;-69
2023/08/14 07:08:14;;;;;;;4.88;3.33;;;;;;;22.92;91.13;101415.28;10498057;28;20120;-70
2023/08/14 07:13:15;;;;;;;3.22;3.00;;;;;;;21.50;94.16;101412.91;10497351;28;20095;-69
2023/08/14 07:18:18;;;;;;;2.67;1.85;;;;;;;20.55;96.01;101418.53;10496966;28;20127;-69
2023/08/14 07:23:19;;;;;;;2.63;2.05;;;;;;;20.58;100.00;101422.66;10496597;28;20452;-69
2023/08/14 07:28:19;;;;;;;3.80;2.10;;;;;;;21.59;93.67;101416.88;10495972;28;20032;-69
2023/08/14 07:33:20;;;;;;;7.28;1.77;;;;;;;23.13;80.57;101405.19;10497192;28;20043;-69
2023/08/14 07:38:20;;;;;;;12.75;2.35;;;;;;;24.59;73.10;101375.28;10497446;28;20040;-70
2023/08/14 07:43:22;;;;;;;3.38;2.75;;;;;;;25.26;66.77;101377.84;10479763;28;20039;-70
2023/08/14 07:48:22;;;;;;;2.40;2.15;;;;;;;25.44;59.72;101370.84;10497066;28;20115;-70
2023/08/14 07:53:23;;;;;;;3.08;2.17;;;;;;;25.71;58.91;101368.44;10512181;28;20466;-70
2023/08/14 07:58:23;;;;;;;7.97;3.35;;;;;;;26.29;58.75;101370.53;10499001;28;20135;-70
2023/08/14 08:03:24;;;;;;;2.50;2.28;;;;;;;26.43;53.05;101379.00;10478623;28;20384;-70
2023/08/14 08:08:24;;;;;;;5.10;3.10;;;;;;;26.56;55.16;101370.00;10494632;28;20037;-70
2023/08/14 08:13:24;;;;;;;2.65;2.45;;;;;;;26.76;55.29;101376.44;10496877;28;20037;-70
2023/08/14 08:18:25;;;;;;;4.35;1.73;;;;;;;27.04;53.18;101366.41;10494955;28;20128;-70
2023/08/14 08:23:25;;;;;;;2.75;1.52;;;;;;;27.75;52.48;101372.94;10495266;28;20043;-70
2023/08/14 08:28:26;;;;;;;1.45;1.38;;;;;;;27.87;49.52;101378.91;10496393;28;20157;-70
2023/08/14 08:33:26;;;;;;;5.63;1.98;;;;;;;27.94;50.60;101384.09;10495605;28;20043;-70
2023/08/14 08:38:26;;;;;;;5.45;1.83;;;;;;;28.09;48.06;101375.50;10494165;28;20123;-70
2023/08/14 08:43:27;;;;;;;1.83;1.73;;;;;;;28.23;50.09;101367.16;10494341;28;20048;-69
2023/08/14 08:48:27;;;;;;;2.00;1.77;;;;;;;28.76;46.92;101368.75;10496112;28;20589;-70
2023/08/14 08:53:28;;;;;;;1.63;1.52;;;;;;;28.50;48.96;101378.41;10494156;28;20033;-69
2023/08/14 08:58:28;;;;;;;2.83;1.98;;;;;;;28.16;47.46;101370.34;10477286;28;20063;-69
2023/08/14 09:03:29;;;;;;;2.60;2.40;;;;;;;27.42;49.53;101372.88;10478529;28;20122;-69
2023/08/14 09:08:29;;;;;;;4.10;1.90;;;;;;;27.73;54.21;101361.31;10494442;28;20044;-69
2023/08/14 09:13:29;;;;;;;8.45;1.77;;;;;;;28.70;50.16;101363.25;10495462;28;20082;-69
2023/08/14 09:18:30;;;;;;;3.40;1.48;;;;;;;28.44;49.35;101343.41;10499912;28;20067;-69
2023/08/14 09:23:32;;;;;;;4.93;2.03;;;;;;;28.73;47.57;101339.50;10504925;28;20033;-69
2023/08/14 09:28:32;;;;;;;3.42;2.40;;;;;;;28.82;47.59;101343.25;10503433;28;20151;-69
2023/08/14 09:33:33;;;;;;;1.60;1.60;;;;;;;28.59;46.43;101356.25;10501636;28;20060;-69
2023/08/14 09:38:33;;;;;;;2.55;2.25;;;;;;;28.63;46.66;101350.88;10502115;28;20020;-69
2023/08/14 09:43:34;;;;;;;3.47;2.20;;;;;;;28.95;49.06;101324.84;10502161;28;20150;-70
2023/08/14 09:48:44;;;;;;;7.65;2.83;;;;;;;29.48;47.26;101326.19;10499223;28;20036;-71
2023/08/14 09:53:48;;;;;;;3.90;2.33;;;;;;;29.71;47.26;101316.75;10500356;28;20029;-69
2023/08/14 09:58:49;;;;;;;1.63;1.52;;;;;;;29.47;43.90;101310.59;10502219;28;20039;-70
2023/08/14 10:03:52;;;;;;;6.55;3.00;;;;;;;29.52;44.59;101310.50;10500598;28;20365;-70
2023/08/14 10:08:55;;;;;;;4.47;1.67;;;;;;;29.78;47.73;101310.72;10517012;28;20399;-70
2023/08/14 10:13:57;;;;;;;7.53;2.65;;;;;;;30.15;42.97;101306.66;10482984;28;20032;-70
2023/08/14 10:18:57;;;;;;;1.70;1.60;;;;;;;29.80;42.43;101295.31;10500287;28;20060;-69
2023/08/14 10:24:02;;;;;;;7.80;1.98;;;;;;;28.71;47.05;101289.66;10515608;28;20140;-69
2023/08/14 10:29:03;;;;;;;1.75;1.65;;;;;;;28.61;45.13;101286.25;10498733;28;20036;-72
2023/08/14 10:34:03;;;;;;;6.13;2.58;;;;;;;29.46;46.64;101295.00;10498962;28;20506;-69
2023/08/14 10:39:10;;;;;;;3.38;2.47;;;;;;;29.33;44.62;101289.16;10497689;28;20109;-69
2023/08/14 10:44:11;;;;;;;6.57;2.20;;;;;;;30.12;44.83;101290.56;10481713;28;20483;-70
2023/08/14 10:49:12;;;;;;;9.93;3.30;;;;;;;30.89;44.57;101296.81;10497816;28;20036;-69
2023/08/14 10:54:14;;;;;;;6.03;2.42;;;;;;;32.10;43.82;101282.00;10514156;28;20536;-69
2023/08/14 10:59:26;;;;;;;1.88;1.75;;;;;;;31.60;38.68;101272.22;10499742;28;20162;-69
2023/08/14 11:04:27;;;;;;;4.07;2.60;;;;;;;30.67;42.13;101278.19;10464020;28;20494;-70
2023/08/14 11:09:31;;;;;;;4.47;2.30;;;;;;;31.26;41.75;101281.41;10498639;28;20361;-69
2023/08/14 11:14:34;;;;;;;4.25;1.88;;;;;;;30.53;44.22;101272.69;10496502;28;20464;-69
2023/08/14 11:19:36;;;;;;;4.00;2.28;;;;;;;30.89;45.05;101268.84;10498845;28;20073;-70
2023/08/14 11:24:36;;;;;;;1.27;1.23;;;;;;;30.97;41.70;101273.66;10512977;28;20078;-70
2023/08/14 11:29:37;;;;;;;3.88;2.53;;;;;;;29.48;42.03;101275.97;10498035;28;20029;-70
2023/08/14 11:34:38;;;;;;;4.50;2.53;;;;;;;29.87;47.05;101278.09;10497732;28;20123;-69
2023/08/14 11:39:39;;;;;;;1.83;1.67;;;;;;;31.79;42.12;101254.25;10495740;28;20037;-69
2023/08/14 11:44:39;;;;;;;4.13;1.52;;;;;;;31.69;40.92;101252.63;10496102;28;20483;-70
2023/08/14 11:49:39;;;;;;;5.72;2.65;;;;;;;30.48;38.43;101251.31;10497631;28;20036;-69
2023/08/14 11:54:40;;;;;;;6.40;2.53;;;;;;;30.26;40.83;101243.00;10499359;28;20480;-69
2023/08/14 11:59:40;;;;;;;1.88;1.77;;;;;;;31.68;38.14;101248.97;10498517;28;20051;-69
2023/08/14 12:04:41;;;;;;;10.48;3.65;;;;;;;31.55;39.60;101241.59;10495175;28;20090;-70
2023/08/14 12:09:41;;;;;;;3.28;2.45;;;;;;;31.45;39.24;101253.13;10495885;28;20047;-69
2023/08/14 12:14:43;;;;;;;3.17;2.85;;;;;;;30.99;41.01;101240.59;10495083;28;20031;-70
2023/08/14 12:19:57;;;;;;;5.43;3.00;;;;;;;32.06;40.49;101234.25;10461278;28;20039;-70
2023/08/14 12:24:58;;;;;;;4.05;2.80;;;;;;;32.30;39.58;101236.47;10494534;28;20043;-69
2023/08/14 12:29:58;;;;;;;2.50;1.83;;;;;;;32.58;37.93;101233.19;10494662;28;20032;-69
2023/08/14 12:34:58;;;;;;;5.63;2.42;;;;;;;32.53;38.80;101214.59;10477794;28;20035;-70
2023/08/14 12:39:59;;;;;;;3.90;2.55;;;;;;;32.27;37.78;101223.13;10478805;28;20056;-69
2023/08/14 12:44:59;;;;;;;5.57;3.00;;;;;;;31.85;38.59;101216.50;10496275;28;20033;-69
2023/08/14 12:50:00;;;;;;;3.25;2.53;;;;;;;31.78;40.46;101207.78;10495956;28;20039;-69
2023/08/14 12:55:00;;;;;;;3.40;2.75;;;;;;;31.61;39.61;101214.25;10500556;28;20090;-70
2023/08/14 13:00:02;;;;;;;3.30;2.45;;;;;;;32.16;39.36;101207.81;10502913;28;20392;-70
2023/08/14 13:05:03;;;;;;;2.70;2.40;;;;;;;31.78;40.69;101205.81;10502588;28;20032;-69
2023/08/14 13:10:03;;;;;;;3.05;2.38;;;;;;;31.26;38.46;101194.66;10502218;28;20040;-69
2023/08/14 13:15:04;;;;;;;4.35;2.63;;;;;;;31.77;40.13;101189.34;10502960;28;20039;-70
2023/08/14 13:20:05;;;;;;;2.53;2.33;;;;;;;32.11;40.19;101180.00;10500513;28;20039;-70
2023/08/14 13:25:06;;;;;;;1.88;1.77;;;;;;;32.15;40.42;101195.81;10500692;28;20123;-70
2023/08/14 13:30:07;;;;;;;11.48;3.28;;;;;;;32.28;41.61;101181.91;10501964;28;20431;-70
2023/08/14 13:35:08;;;;;;;5.90;2.75;;;;;;;32.28;36.66;101176.28;10501875;28;20044;-70
2023/08/14 13:40:09;;;;;;;4.18;2.67;;;;;;;31.55;39.12;101180.00;10502100;28;20033;-70
2023/08/14 13:45:09;;;;;;;3.90;2.35;;;;;;;31.48;41.09;101169.31;10500815;28;20463;-69
2023/08/14 13:50:10;;;;;;;4.78;2.30;;;;;;;31.53;39.32;101159.94;10501139;28;20098;-70
2023/08/14 13:55:10;;;;;;;2.05;1.95;;;;;;;31.25;41.08;101157.47;10500791;28;20079;-69
2023/08/14 14:00:11;;;;;;;6.35;2.85;;;;;;;30.72;42.81;101172.59;10500443;28;20033;-70
2023/08/14 14:05:11;;;;;;;3.10;1.85;;;;;;;30.01;42.84;101157.94;10499671;28;20112;-70
2023/08/14 14:10:12;;;;;;;9.57;2.38;;;;;;;29.33;43.98;101163.63;10481933;28;20471;-69
2023/08/14 14:15:12;;;;;;;11.65;3.35;;;;;;;29.70;44.15;101166.31;10516394;28;20388;-70
2023/08/14 14:20:13;;;;;;;3.17;2.50;;;;;;;29.96;42.84;101158.88;10500616;28;20060;-70
2023/08/14 14:25:13;;;;;;;2.70;2.50;;;;;;;30.39;43.65;101152.66;10501264;28;20032;-69
2023/08/14 14:30:13;;;;;;;3.88;2.20;;;;;;;30.44;43.31;101141.34;10502176;28;20036;-70
2023/08/14 14:35:14;;;;;;;2.63;1.75;;;;;;;30.34;43.70;101131.28;10501919;28;20039;-70
2023/08/14 14:40:14;;;;;;;2.70;2.30;;;;;;;30.71;43.88;101129.03;10497279;28;20037;-70
2023/08/14 14:45:15;;;;;;;5.78;2.28;;;;;;;30.83;44.67;101130.38;10498692;28;20078;-70
2023/08/14 14:50:15;;;;;;;10.77;2.33;;;;;;;30.96;43.40;101127.41;10497041;28;20388;-70
2023/08/14 14:55:16;;;;;;;4.95;2.67;;;;;;;30.47;43.83;101117.47;10497465;28;20072;-70
2023/08/14 15:00:17;;;;;;;7.30;2.47;;;;;;;30.48;43.05;101121.94;10497100;28;20514;-70
2023/08/14 15:05:17;;;;;;;9.38;2.72;;;;;;;30.25;44.83;101115.63;10498380;28;20028;-70
2023/08/14 15:10:18;;;;;;;2.40;2.17;;;;;;;29.92;46.06;101107.63;10514447;28;20037;-70
2023/08/14 15:15:18;;;;;;;7.35;2.97;;;;;;;29.69;42.45;101106.06;10497182;28;20035;-69
2023/08/14 15:20:19;;;;;;;5.25;2.67;;;;;;;29.59;44.81;101107.16;10479523;28;20028;-70
2023/08/14 15:25:19;;;;;;;5.35;1.70;;;;;;;29.01;45.06;101108.94;10479714;28;20029;-69
2023/08/14 15:30:19;;;;;;;5.60;2.63;;;;;;;28.71;45.76;101114.06;10496830;28;20117;-70
2023/08/14 15:35:20;;;;;;;3.72;2.25;;;;;;;29.08;46.07;101114.88;10497426;28;20373;-69
2023/08/14 15:40:20;;;;;;;3.10;2.22;;;;;;;29.12;45.99;101113.09;10497296;28;20059;-69
2023/08/14 15:45:20;;;;;;;3.17;2.40;;;;;;;29.15;47.23;101122.81;10497414;28;20124;-69
2023/08/14 15:50:21;;;;;;;5.40;3.00;;;;;;;28.39;45.64;101123.41;10513143;28;20033;-70
2023/08/14 15:55:21;;;;;;;6.88;2.90;;;;;;;27.86;46.78;101125.94;10495867;28;20056;-69
2023/08/14 16:00:27;;;;;;;4.60;2.75;;;;;;;27.56;47.33;101122.56;10496501;28;20091;-69
2023/08/14 16:05:30;;;;;;;3.33;2.92;;;;;;;26.92;48.11;101125.03;10495435;28;20052;-69
2023/08/14 16:10:30;;;;;;;7.75;2.72;;;;;;;26.32;48.68;101114.47;10496717;28;20368;-70
2023/08/14 16:15:31;;;;;;;7.63;2.42;;;;;;;26.09;49.25;101126.44;10497163;28;20071;-69
2023/08/14 16:20:31;;;;;;;5.32;2.70;;;;;;;26.01;49.38;101127.13;10482344;28;20139;-69
2023/08/14 16:25:31;;;;;;;2.67;2.10;;;;;;;25.87;50.17;101124.19;10497286;28;20486;-69
2023/08/14 16:30:35;;;;;;;5.43;2.85;;;;;;;25.89;50.29;101127.50;10502809;28;20055;-69
2023/08/14 16:35:35;;;;;;;2.65;1.67;;;;;;;26.00;50.35;101125.44;10504857;28;20228;-69
2023/08/14 16:40:44;;;;;;;3.08;2.67;;;;;;;26.00;50.51;101130.97;10505185;28;20076;-69
2023/08/14 16:45:48;;;;;;;12.60;2.95;;;;;;;26.00;50.48;101131.81;10502953;28;20045;-69
2023/08/14 16:50:49;;;;;;;5.72;2.97;;;;;;;25.94;50.71;101135.75;10502762;28;20121;-69
2023/08/14 16:55:52;;;;;;;3.30;2.70;;;;;;;25.62;51.97;101130.81;10519566;28;20129;-69
2023/08/14 17:00:53;;;;;;;9.50;2.53;;;;;;;25.49;51.53;101135.09;10505008;28;20090;-69
2023/08/14 17:05:59;;;;;;;5.03;2.58;;;;;;;25.40;51.75;101128.53;10506047;28;20513;-69
2023/08/14 17:11:01;;;;;;;2.75;2.35;;;;;;;25.28;52.23;101126.97;10504636;28;20039;-69
2023/08/14 17:16:01;;;;;;;2.78;2.58;;;;;;;25.19;53.12;101117.63;10501056;28;20029;-69
2023/08/14 17:21:02;;;;;;;4.38;2.58;;;;;;;25.24;52.59;101114.00;10500596;28;20033;-69
2023/08/14 17:26:03;;;;;;;3.97;2.95;;;;;;;25.19;52.66;101119.59;10501228;28;20032;-69
2023/08/14 17:31:03;;;;;;;5.57;2.40;;;;;;;25.08;52.79;101127.13;10501960;28;20037;-69
2023/08/14 17:36:03;;;;;;;2.78;2.17;;;;;;;24.91;53.37;101124.75;10500744;28;20035;-69
2023/08/14 17:41:04;;;;;;;6.68;2.42;;;;;;;24.77;53.56;101118.22;10499174;28;20473;-69
2023/08/14 17:46:04;;;;;;;4.00;1.98;;;;;;;24.65;53.76;101124.09;10500689;28;20388;-69
2023/08/14 17:51:05;;;;;;;6.93;2.72;;;;;;;24.51;53.96;101123.09;10498927;28;20033;-69
2023/08/14 17:56:05;;;;;;;10.38;2.92;;;;;;;24.39;53.94;101109.56;10501165;28;20413;-69
2023/08/14 18:01:06;;;;;;;6.18;2.67;;;;;;;24.29;54.10;101113.19;10498445;28;20036;-69
2023/08/14 18:06:06;;;;;;;6.30;2.10;;;;;;;24.14;54.55;101107.75;10499265;28;20032;-69
2023/08/14 18:11:07;;;;;;;10.48;3.08;;;;;;;23.99;55.05;101100.31;10499721;28;20064;-69
2023/08/14 18:16:07;;;;;;;5.80;2.53;;;;;;;23.90;56.10;101091.78;10498729;28;20502;-69
2023/08/14 18:21:07;;;;;;;3.22;2.45;;;;;;;23.74;56.51;101098.50;10499298;28;20063;-69
2023/08/14 18:26:08;;;;;;;7.47;2.75;;;;;;;23.63;57.15;101103.16;10498787;28;20487;-69
2023/08/14 18:31:08;;;;;;;3.75;2.55;;;;;;;23.55;57.44;101102.94;10498884;28;20028;-69
2023/08/14 18:36:09;;;;;;;2.72;2.08;;;;;;;23.42;58.49;101107.91;10498842;28;20077;-69
2023/08/14 18:41:09;;;;;;;4.90;2.85;;;;;;;23.32;59.24;101107.91;10498013;28;20048;-69
2023/08/14 18:46:10;;;;;;;6.70;3.20;;;;;;;23.18;60.44;101109.59;10497380;28;20468;-69
2023/08/14 18:51:10;;;;;;;3.40;2.95;;;;;;;23.03;60.28;101115.09;10496414;28;20116;-69
2023/08/14 18:56:10;;;;;;;4.07;2.47;;;;;;;22.83;60.43;101119.47;10496824;28;20539;-71
2023/08/14 19:01:11;;;;;;;4.25;3.45;;;;;;;22.67;61.36;101117.81;10495551;28;20048;-70
2023/08/14 19:06:11;;;;;;;3.58;2.75;;;;;;;22.67;61.99;101121.38;10496603;28;20063;-70
2023/08/14 19:11:12;;;;;;;2.83;2.10;;;;;;;22.77;62.55;101112.28;10478603;28;20051;-69
2023/08/14 19:16:12;;;;;;;4.72;2.95;;;;;;;22.74;62.80;101121.94;10496359;28;20430;-69
2023/08/14 19:21:14;;;;;;;2.47;2.33;;;;;;;22.45;65.75;101124.38;10496010;28;20131;-69
2023/08/14 19:26:15;;;;;;;2.75;2.47;;;;;;;22.28;65.37;101116.31;10495808;28;20033;-69
2023/08/14 19:31:16;;;;;;;5.72;3.85;;;;;;;22.14;65.30;101125.31;10495440;28;20040;-68
2023/08/14 19:36:16;;;;;;;11.48;3.90;;;;;;;22.01;65.52;101126.66;10495423;28;20078;-70
2023/08/14 19:41:16;;;;;;;9.93;4.20;;;;;;;21.87;66.07;101131.81;10495774;28;20043;-69
2023/08/14 19:46:17;;;;;;;2.53;2.40;;;;;;;21.77;66.49;101140.03;10494566;28;20036;-69
2023/08/14 19:51:17;;;;;;;8.98;3.67;;;;;;;21.75;66.80;101145.81;10478029;28;20130;-69
2023/08/14 19:56:19;;;;;;;6.10;4.32;;;;;;;21.79;67.10;101140.59;10477496;28;20048;-69
2023/08/14 20:01:19;;;;;;;5.68;4.10;;;;;;;21.84;67.25;101132.34;10494562;28;20050;-69
2023/08/14 20:06:21;;;;;;;5.35;2.95;;;;;;;21.90;67.55;101139.56;10476710;28;20029;-69
2023/08/14 20:11:21;;;;;;;10.95;4.65;;;;;;;21.94;67.50;101135.16;10495663;28;20464;-69
2023/08/14 20:16:22;;;;;;;7.72;5.28;;;;;;;21.88;67.62;101149.19;10493579;28;20029;-70
2023/08/14 20:21:22;;;;;;;8.80;3.60;;;;;;;21.74;68.51;101152.44;10495859;28;20457;-69
2023/08/14 20:26:23;;;;;;;8.77;4.30;;;;;;;21.71;69.63;101150.19;10495090;28;20036;-70
2023/08/14 20:31:23;;;;;;;5.25;4.40;;;;;;;21.67;69.69;101159.28;10494042;28;20072;-69
2023/08/14 20:36:28;;;;;;;10.27;4.60;;;;;;;21.74;71.06;101166.22;10493546;28;20498;-69
2023/08/14 20:41:28;;;;;;;7.63;3.60;;;;;;;21.81;74.94;101182.50;10493953;28;20036;-70
2023/08/14 20:46:28;;;;;;;6.05;4.22;;;;;;;21.65;79.79;101197.28;10492359;28;20086;-69
2023/08/14 20:51:29;;;;;;;6.18;3.72;;;;;;;21.43;79.39;101198.22;10493825;28;20059;-69
2023/08/14 20:56:29;;;;;;;11.10;3.55;;;;;;;21.13;81.37;101187.75;10493757;28;20361;-69
2023/08/14 21:01:30;;;;;;;11.68;3.40;;;;;;;20.97;79.65;101192.25;10492182;28;20036;-69
2023/08/14 21:06:30;;;;;;;3.70;2.67;;;;;;;20.90;80.58;101197.16;10492739;28;20101;-69
2023/08/14 21:11:30;;;;;;;5.82;3.00;;;;;;;20.88;80.11;101196.56;10494980;28;20371;-70
2023/08/14 21:16:31;;;;;;;4.60;2.97;;;;;;;20.84;79.88;101199.00;10500045;28;20087;-69
2023/08/14 21:21:31;;;;;;;4.32;2.83;;;;;;;20.88;78.89;101199.31;10500026;28;20052;-69
2023/08/14 21:26:32;;;;;;;4.82;2.78;;;;;;;20.90;79.65;101192.47;10500876;28;20082;-69
2023/08/14 21:31:33;;;;;;;3.42;2.08;;;;;;;20.86;79.14;101190.47;10500542;28;20040;-69
2023/08/14 21:36:33;;;;;;;6.40;2.28;;;;;;;20.80;78.53;101183.25;10500284;28;20043;-69
2023/08/14 21:41:33;;;;;;;2.97;2.42;;;;;;;20.71;77.76;101184.81;10499631;28;20062;-69
2023/08/14 21:46:34;;;;;;;4.90;2.45;;;;;;;20.58;77.71;101180.53;10499387;28;20028;-69
2023/08/14 21:51:35;;;;;;;12.52;2.47;;;;;;;20.53;77.61;101188.75;10500132;28;20039;-69
2023/08/14 21:56:35;;;;;;;5.90;2.25;;;;;;;20.55;77.99;101184.66;10499395;28;20387;-69
2023/08/14 22:01:36;;;;;;;13.63;2.38;;;;;;;20.68;76.65;101186.16;10498933;28;20113;-69
2023/08/14 22:06:36;;;;;;;3.25;2.30;;;;;;;20.76;75.59;101193.13;10498824;28;20507;-69
2023/08/14 22:11:37;;;;;;;7.95;1.75;;;;;;;20.72;73.95;101189.25;10498878;28;20068;-69
2023/08/14 22:16:37;;;;;;;9.85;3.15;;;;;;;20.60;73.58;101181.94;10498591;28;20112;-69
2023/08/14 22:21:37;;;;;;;3.97;1.83;;;;;;;20.51;73.17;101188.13;10497102;28;20041;-69
2023/08/14 22:26:38;;;;;;;2.33;2.13;;;;;;;20.42;73.21;101193.25;10497312;28;20082;-69
2023/08/14 22:31:38;;;;;;;8.52;2.80;;;;;;;20.43;73.72;101178.41;10497078;28;20120;-69
2023/08/14 22:36:38;;;;;;;9.90;3.08;;;;;;;20.27;73.01;101179.31;10497696;28;20040;-70
2023/08/14 22:41:39;;;;;;;2.88;1.90;;;;;;;20.11;73.01;101179.09;10497144;28;20119;-69
2023/08/14 22:46:39;;;;;;;3.65;3.20;;;;;;;19.99;74.19;101183.88;10496249;28;20526;-69
2023/08/14 22:51:40;;;;;;;5.63;2.78;;;;;;;19.98;74.21;101191.31;10498557;28;20090;-69
2023/08/14 22:56:40;;;;;;;6.60;2.97;;;;;;;20.05;74.36;101187.53;10495968;28;20064;-69